Time;durP1;ratioP1;P1;durP2;ratioP2;P2;SDS_P1;SDS_P2;PMS_P1;PMS_P2;Temp;Humidity;BMP_temperature;BMP_pressure;BME280_temperature;BME280_humidity;BME280_pressure;Samples;Min_cycle;Max_cycle;Signal;HPM_P1;HPM_P2
2022/12/15 00:40:58;;;;;;;55.40;36.07;;;;;;;;;;5072786;28;20234;-80
2022/12/15 00:43:28;;;;;;;62.10;37.30;;;;;;;;;;5068120;28;20181;-79
2022/12/15 00:48:39;;;;;;;59.53;36.37;;;;;;;;;;5055214;28;20260;-79
2022/12/15 00:51:05;;;;;;;57.40;36.63;;;;;;;;;;5059802;28;20177;-78
2022/12/15 01:21:09;;;;;;;68.07;36.60;;;;;;;;;;5055312;28;20246;-78
2022/12/15 01:23:36;;;;;;;60.67;35.63;;;;;;;;;;5060253;28;20181;-79
2022/12/15 01:26:02;;;;;;;64.40;39.03;;;;;;;;;;5068519;28;20660;-79
2022/12/15 01:28:28;;;;;;;57.53;37.53;;;;;;;;;;5057625;28;20170;-79
2022/12/15 01:30:54;;;;;;;56.37;36.70;;;;;;;;;;5066836;28;20706;-78
2022/12/15 01:33:21;;;;;;;59.90;37.40;;;;;;;;;;5066614;28;20228;-79
2022/12/15 01:35:56;;;;;;;53.60;34.57;;;;;;;;;;5056191;28;20708;-79
2022/12/15 01:38:22;;;;;;;59.50;36.40;;;;;;;;;;5068807;28;20193;-79
2022/12/15 01:40:58;;;;;;;60.90;36.77;;;;;;;;;;5052774;28;20205;-80
2022/12/15 01:43:25;;;;;;;54.87;34.97;;;;;;;;;;5055997;28;20182;-79
2022/12/15 01:45:54;;;;;;;61.30;37.27;;;;;;;;;;5057068;28;20189;-79
2022/12/15 01:48:41;;;;;;;56.57;37.10;;;;;;;;;;5072646;28;20188;-79
2022/12/15 01:51:12;;;;;;;56.83;34.47;;;;;;;;;;5052912;28;20320;-78
2022/12/15 01:53:45;;;;;;;57.63;36.13;;;;;;;;;;5040176;28;20198;-79
2022/12/15 01:56:11;;;;;;;56.00;36.57;;;;;;;;;;5051749;28;20258;-79
2022/12/15 01:58:38;;;;;;;59.17;37.23;;;;;;;;;;5067806;28;20202;-78
2022/12/15 02:01:05;;;;;;;61.53;37.13;;;;;;;;;;5036548;28;20319;-77
2022/12/15 02:03:31;;;;;;;63.57;37.60;;;;;;;;;;5059017;28;20271;-78
2022/12/15 02:05:59;;;;;;;58.60;34.73;;;;;;;;;;5065731;28;20701;-78
2022/12/15 02:08:26;;;;;;;57.97;35.73;;;;;;;;;;5068180;28;20197;-78
2022/12/15 02:10:55;;;;;;;56.50;36.17;;;;;;;;;;5069575;28;20178;-78
2022/12/15 02:13:39;;;;;;;57.57;35.37;;;;;;;;;;5038030;28;20273;-78
2022/12/15 02:16:15;;;;;;;58.83;35.53;;;;;;;;;;5066043;28;20279;-78
2022/12/15 02:19:01;;;;;;;56.43;36.03;;;;;;;;;;5043466;28;20732;-79
2022/12/15 02:21:30;;;;;;;56.73;34.50;;;;;;;;;;5030837;28;20205;-78
2022/12/15 02:24:02;;;;;;;60.23;36.37;;;;;;;;;;5037923;28;20204;-78
2022/12/15 02:26:38;;;;;;;59.53;36.60;;;;;;;;;;5040449;28;20570;-78
2022/12/15 02:29:10;;;;;;;62.13;36.73;;;;;;;;;;5028289;28;20199;-79
2022/12/15 02:31:51;;;;;;;62.37;37.77;;;;;;;;;;5024417;28;20559;-79
2022/12/15 02:34:34;;;;;;;55.67;34.23;;;;;;;;;;4996651;28;20194;-79
2022/12/15 02:37:03;;;;;;;62.37;36.60;;;;;;;;;;5016959;28;20236;-79
2022/12/15 02:39:29;;;;;;;56.27;35.60;;;;;;;;;;5014526;28;20219;-78
2022/12/15 02:41:55;;;;;;;56.90;36.70;;;;;;;;;;4995657;28;20194;-79
2022/12/15 02:44:32;;;;;;;59.47;36.47;;;;;;;;;;5009863;28;25318;-78
2022/12/15 02:47:17;;;;;;;58.53;35.03;;;;;;;;;;5005173;28;20238;-79
2022/12/15 02:49:52;;;;;;;58.63;36.00;;;;;;;;;;5013583;28;20205;-78
2022/12/15 02:52:36;;;;;;;56.00;35.43;;;;;;;;;;5004304;28;20190;-78
2022/12/15 02:55:17;;;;;;;54.30;33.73;;;;;;;;;;5014438;28;20221;-78
2022/12/15 02:57:52;;;;;;;54.63;33.97;;;;;;;;;;5028046;28;20205;-78
2022/12/15 03:00:18;;;;;;;59.50;35.33;;;;;;;;;;5063224;28;20299;-78
2022/12/15 03:02:47;;;;;;;61.37;35.30;;;;;;;;;;5071841;28;20201;-78
2022/12/15 03:05:14;;;;;;;59.33;35.87;;;;;;;;;;5071070;28;20189;-79
2022/12/15 03:07:41;;;;;;;56.23;33.80;;;;;;;;;;5059671;28;20170;-78
2022/12/15 03:10:08;;;;;;;55.10;36.53;;;;;;;;;;5069950;28;20195;-78
2022/12/15 03:12:34;;;;;;;54.83;35.47;;;;;;;;;;5072653;28;20185;-77
2022/12/15 03:15:00;;;;;;;56.40;36.00;;;;;;;;;;5071510;28;20231;-79
2022/12/15 03:17:26;;;;;;;51.67;33.33;;;;;;;;;;5072530;28;20190;-79
2022/12/15 03:19:52;;;;;;;56.30;35.00;;;;;;;;;;5069591;28;20622;-78
2022/12/15 03:22:19;;;;;;;53.27;35.50;;;;;;;;;;5056558;28;20216;-79
2022/12/15 03:24:45;;;;;;;58.50;36.77;;;;;;;;;;5060996;28;20522;-80
2022/12/15 03:27:11;;;;;;;58.63;36.83;;;;;;;;;;5069972;28;20268;-79
2022/12/15 03:29:37;;;;;;;53.67;34.63;;;;;;;;;;5062244;28;20734;-80
2022/12/15 03:32:03;;;;;;;53.80;34.20;;;;;;;;;;5064307;28;20197;-79
2022/12/15 03:34:29;;;;;;;50.70;33.70;;;;;;;;;;5067717;28;20291;-78
2022/12/15 03:36:55;;;;;;;53.43;36.03;;;;;;;;;;5064511;28;20269;-78
2022/12/15 03:39:21;;;;;;;56.83;36.73;;;;;;;;;;5056304;28;20616;-78
2022/12/15 03:41:47;;;;;;;56.67;35.63;;;;;;;;;;5062310;28;20178;-79
2022/12/15 03:44:14;;;;;;;55.80;35.67;;;;;;;;;;5068747;28;20178;-78
2022/12/15 03:46:40;;;;;;;58.97;36.70;;;;;;;;;;5069165;28;20185;-78
2022/12/15 03:49:06;;;;;;;52.10;34.33;;;;;;;;;;5063849;28;20540;-78
2022/12/15 03:51:32;;;;;;;53.20;34.47;;;;;;;;;;5068419;28;20205;-79
2022/12/15 03:53:58;;;;;;;56.97;36.73;;;;;;;;;;5067556;28;20274;-79
2022/12/15 03:56:24;;;;;;;51.03;33.50;;;;;;;;;;5059673;28;20642;-79
2022/12/15 03:58:50;;;;;;;59.83;36.63;;;;;;;;;;5061566;28;20287;-78
2022/12/15 04:01:22;;;;;;;55.23;36.23;;;;;;;;;;5062942;28;20204;-77
2022/12/15 04:03:48;;;;;;;60.70;38.27;;;;;;;;;;5070975;28;20677;-78
2022/12/15 04:06:14;;;;;;;57.57;36.40;;;;;;;;;;5068159;28;20315;-78
2022/12/15 04:08:40;;;;;;;57.47;35.47;;;;;;;;;;5069172;28;20268;-79
2022/12/15 04:11:06;;;;;;;54.10;35.03;;;;;;;;;;5069571;28;20174;-77
2022/12/15 04:13:32;;;;;;;62.43;37.27;;;;;;;;;;5058956;28;20186;-79
2022/12/15 04:16:01;;;;;;;56.50;35.53;;;;;;;;;;5069856;28;20193;-79
2022/12/15 04:18:27;;;;;;;60.33;37.07;;;;;;;;;;5062704;28;20179;-79
2022/12/15 04:20:53;;;;;;;52.93;36.27;;;;;;;;;;5057941;28;20183;-79
2022/12/15 04:23:19;;;;;;;60.03;38.97;;;;;;;;;;5068536;28;20184;-78
2022/12/15 05:31:54;;;;;;;67.13;42.63;;;;;;;;;;5070313;28;20211;-79
2022/12/15 05:34:33;;;;;;;65.40;43.33;;;;;;;;;;5069708;28;20754;-78
2022/12/15 05:37:00;;;;;;;71.03;44.27;;;;;;;;;;5070498;28;20281;-79
2022/12/15 05:39:26;;;;;;;72.90;44.47;;;;;;;;;;5067223;28;20206;-78
2022/12/15 05:41:53;;;;;;;74.47;43.93;;;;;;;;;;5069779;28;20213;-79
2022/12/15 05:44:19;;;;;;;71.93;43.33;;;;;;;;;;5063660;28;20186;-78
2022/12/15 05:46:45;;;;;;;72.20;43.30;;;;;;;;;;5069630;28;20183;-78
2022/12/15 05:49:16;;;;;;;68.03;41.90;;;;;;;;;;5060698;28;20306;-78
2022/12/15 05:51:43;;;;;;;76.53;46.03;;;;;;;;;;5059972;28;20239;-78
2022/12/15 05:54:09;;;;;;;75.43;45.83;;;;;;;;;;5068142;28;20195;-78
2022/12/15 05:56:36;;;;;;;76.30;44.83;;;;;;;;;;5068165;28;20169;-77
2022/12/15 05:59:03;;;;;;;73.87;45.60;;;;;;;;;;5066132;28;20216;-78
2022/12/15 06:01:30;;;;;;;71.57;43.10;;;;;;;;;;5062575;28;20203;-78
2022/12/15 06:03:56;;;;;;;73.20;44.73;;;;;;;;;;5061010;28;20182;-78
2022/12/15 06:06:22;;;;;;;72.97;45.17;;;;;;;;;;5058276;28;20215;-78
2022/12/15 06:08:48;;;;;;;70.07;44.73;;;;;;;;;;5051812;28;20219;-77
2022/12/15 06:11:15;;;;;;;70.70;43.43;;;;;;;;;;5060905;28;20220;-78
2022/12/15 06:13:41;;;;;;;82.07;46.07;;;;;;;;;;5067198;28;20207;-76
2022/12/15 06:16:10;;;;;;;72.63;44.17;;;;;;;;;;5069321;28;20178;-80
2022/12/15 06:18:37;;;;;;;76.70;45.07;;;;;;;;;;5067990;28;20231;-76
2022/12/15 06:21:05;;;;;;;73.07;45.93;;;;;;;;;;5068231;28;20177;-78
2022/12/15 06:23:31;;;;;;;71.47;44.00;;;;;;;;;;5069648;28;20199;-79
2022/12/15 06:25:57;;;;;;;74.03;44.70;;;;;;;;;;5066046;28;20182;-78
2022/12/15 06:28:23;;;;;;;73.90;45.87;;;;;;;;;;5056207;28;20228;-78
2022/12/15 06:31:00;;;;;;;77.40;47.70;;;;;;;;;;5060434;28;20215;-78
2022/12/15 06:33:28;;;;;;;77.93;46.37;;;;;;;;;;5062511;28;20178;-78
2022/12/15 06:35:54;;;;;;;79.60;47.90;;;;;;;;;;5053549;28;20603;-77
2022/12/15 06:38:20;;;;;;;79.30;46.90;;;;;;;;;;5071094;28;20256;-78
2022/12/15 06:40:54;;;;;;;83.77;47.93;;;;;;;;;;5068104;28;20216;-77
2022/12/15 06:43:20;;;;;;;81.30;47.47;;;;;;;;;;5062646;28;20639;-77
2022/12/15 06:45:50;;;;;;;80.60;49.60;;;;;;;;;;5053729;28;20208;-78
2022/12/15 06:48:16;;;;;;;89.33;49.20;;;;;;;;;;5056534;28;20184;-78
2022/12/15 06:50:44;;;;;;;78.07;49.30;;;;;;;;;;5070181;28;20181;-77
2022/12/15 06:53:10;;;;;;;82.43;48.93;;;;;;;;;;5053966;28;20170;-77
2022/12/15 06:55:36;;;;;;;82.83;50.27;;;;;;;;;;5056365;28;20197;-78
2022/12/15 06:58:02;;;;;;;84.27;50.77;;;;;;;;;;5063436;28;20182;-79
2022/12/15 07:00:28;;;;;;;82.03;49.40;;;;;;;;;;5056648;28;20685;-79
2022/12/15 07:02:54;;;;;;;83.93;50.97;;;;;;;;;;5051536;28;20182;-78
2022/12/15 07:05:20;;;;;;;84.47;50.13;;;;;;;;;;5066903;28;20177;-78
2022/12/15 07:07:47;;;;;;;83.67;50.40;;;;;;;;;;5058409;28;20197;-78
2022/12/15 07:10:13;;;;;;;90.90;52.60;;;;;;;;;;5063059;28;20192;-78
2022/12/15 07:12:39;;;;;;;88.00;52.63;;;;;;;;;;5065669;28;20646;-78
2022/12/15 07:15:06;;;;;;;80.07;49.00;;;;;;;;;;5072466;28;20320;-78
2022/12/15 07:17:32;;;;;;;85.20;51.43;;;;;;;;;;5067094;28;20206;-79
2022/12/15 07:19:58;;;;;;;90.03;51.57;;;;;;;;;;5055154;28;20211;-78
2022/12/15 07:22:24;;;;;;;92.27;51.87;;;;;;;;;;5060187;28;20212;-77
2022/12/15 07:24:50;;;;;;;77.20;49.57;;;;;;;;;;5057164;28;20219;-78
2022/12/15 07:27:16;;;;;;;84.00;50.63;;;;;;;;;;5055495;28;20220;-77
2022/12/15 07:29:43;;;;;;;83.53;51.60;;;;;;;;;;5069149;28;20268;-77
2022/12/15 07:32:09;;;;;;;87.57;52.17;;;;;;;;;;5055267;28;20662;-77
2022/12/15 07:34:35;;;;;;;91.40;54.40;;;;;;;;;;5059155;28;20235;-78
2022/12/15 07:37:01;;;;;;;87.07;53.87;;;;;;;;;;5063774;28;20182;-77
2022/12/15 07:39:27;;;;;;;88.83;55.33;;;;;;;;;;5055892;28;20338;-78
2022/12/15 07:41:53;;;;;;;91.73;55.47;;;;;;;;;;5069307;28;20185;-78
2022/12/15 07:44:19;;;;;;;89.97;55.33;;;;;;;;;;5054765;28;20736;-77
2022/12/15 07:46:47;;;;;;;92.07;54.43;;;;;;;;;;5058568;28;20214;-77
2022/12/15 07:49:13;;;;;;;89.80;53.67;;;;;;;;;;5065517;28;20228;-78
2022/12/15 07:51:40;;;;;;;95.60;55.77;;;;;;;;;;5069918;28;20194;-78
2022/12/15 07:54:06;;;;;;;94.03;54.73;;;;;;;;;;5071001;28;20256;-77
2022/12/15 07:56:32;;;;;;;90.97;55.83;;;;;;;;;;5069426;28;20181;-77
2022/12/15 07:58:58;;;;;;;93.97;56.13;;;;;;;;;;5070830;28;20240;-79
2022/12/15 08:01:24;;;;;;;99.10;57.77;;;;;;;;;;5064762;28;20215;-78
2022/12/15 08:03:50;;;;;;;90.67;55.10;;;;;;;;;;5059869;28;20181;-78
2022/12/15 08:06:16;;;;;;;93.27;57.33;;;;;;;;;;5058083;28;20228;-78
2022/12/15 08:08:43;;;;;;;92.43;55.70;;;;;;;;;;5056052;28;20813;-77
2022/12/15 08:11:10;;;;;;;97.23;57.13;;;;;;;;;;5057790;28;20288;-77
2022/12/15 08:13:37;;;;;;;89.23;55.53;;;;;;;;;;5058309;28;20178;-77
2022/12/15 08:16:03;;;;;;;96.53;58.17;;;;;;;;;;5075288;28;20266;-78
2022/12/15 08:18:29;;;;;;;95.93;56.30;;;;;;;;;;5068481;28;20735;-77
2022/12/15 08:20:55;;;;;;;107.03;59.97;;;;;;;;;;5070014;28;20180;-77
2022/12/15 08:23:21;;;;;;;95.13;57.50;;;;;;;;;;5067601;28;20265;-77
2022/12/15 08:25:48;;;;;;;92.07;55.77;;;;;;;;;;5069012;28;20280;-77
2022/12/15 08:28:14;;;;;;;91.80;54.10;;;;;;;;;;5066134;28;20208;-78
2022/12/15 08:30:40;;;;;;;103.33;58.60;;;;;;;;;;5073569;28;20185;-79
2022/12/15 08:33:06;;;;;;;98.50;58.10;;;;;;;;;;5054207;28;20652;-77
2022/12/15 08:35:32;;;;;;;102.47;60.63;;;;;;;;;;5068779;28;20263;-77
2022/12/15 08:38:00;;;;;;;96.23;56.37;;;;;;;;;;5057834;28;20197;-78
2022/12/15 08:40:26;;;;;;;104.97;61.50;;;;;;;;;;5058485;28;20210;-78
2022/12/15 08:42:53;;;;;;;104.53;62.80;;;;;;;;;;5061456;28;20518;-77
2022/12/15 08:45:19;;;;;;;102.27;62.00;;;;;;;;;;5070231;28;20216;-78
2022/12/15 08:47:45;;;;;;;107.40;62.60;;;;;;;;;;5067719;28;20174;-76
2022/12/15 08:50:11;;;;;;;106.27;61.57;;;;;;;;;;5058481;28;20588;-78
2022/12/15 08:52:40;;;;;;;111.37;63.70;;;;;;;;;;5064250;28;20187;-77
2022/12/15 08:55:07;;;;;;;115.17;65.50;;;;;;;;;;5067606;28;20213;-78
2022/12/15 08:57:33;;;;;;;113.20;67.40;;;;;;;;;;5057457;28;20191;-77
2022/12/15 08:59:59;;;;;;;114.03;66.83;;;;;;;;;;5069219;28;21807;-77
2022/12/15 09:02:25;;;;;;;113.13;62.97;;;;;;;;;;5071118;28;20169;-78
2022/12/15 09:04:51;;;;;;;116.27;68.13;;;;;;;;;;5066462;28;20212;-77
2022/12/15 09:07:17;;;;;;;112.27;66.10;;;;;;;;;;5062646;28;20600;-78
2022/12/15 09:09:43;;;;;;;109.83;63.10;;;;;;;;;;5057616;28;20272;-77
2022/12/15 09:12:11;;;;;;;101.70;59.40;;;;;;;;;;5051756;28;20188;-76
2022/12/15 09:14:37;;;;;;;110.83;60.07;;;;;;;;;;5079834;28;20180;-77
2022/12/15 09:17:03;;;;;;;103.60;61.37;;;;;;;;;;5068187;28;20209;-77
2022/12/15 09:19:29;;;;;;;105.13;60.27;;;;;;;;;;5063311;28;20689;-77
2022/12/15 09:21:55;;;;;;;104.47;61.27;;;;;;;;;;5064023;28;20272;-78
2022/12/15 09:24:23;;;;;;;90.13;55.87;;;;;;;;;;5055639;28;20269;-78
2022/12/15 09:26:49;;;;;;;101.63;59.83;;;;;;;;;;5069443;28;20182;-78
2022/12/15 09:29:15;;;;;;;97.63;55.13;;;;;;;;;;5058240;28;20180;-77
2022/12/15 09:31:43;;;;;;;95.37;58.47;;;;;;;;;;5066249;28;20216;-78
2022/12/15 09:34:12;;;;;;;107.53;61.37;;;;;;;;;;5062371;28;20223;-77
2022/12/15 09:36:39;;;;;;;112.50;64.40;;;;;;;;;;5057928;28;20190;-78
2022/12/15 09:39:05;;;;;;;114.40;63.83;;;;;;;;;;5068454;28;20225;-76
2022/12/15 09:41:32;;;;;;;116.23;66.03;;;;;;;;;;5051665;28;20175;-77
2022/12/15 09:44:01;;;;;;;123.37;70.10;;;;;;;;;;5063715;28;20549;-77
2022/12/15 09:46:41;;;;;;;118.23;68.33;;;;;;;;;;5069504;28;20549;-77
2022/12/15 09:49:14;;;;;;;119.07;66.53;;;;;;;;;;5069789;28;20181;-76
2022/12/15 09:51:46;;;;;;;112.63;62.63;;;;;;;;;;5067568;28;20256;-77
2022/12/15 09:54:12;;;;;;;92.53;52.70;;;;;;;;;;5052722;28;20181;-78
2022/12/15 09:56:41;;;;;;;98.10;55.07;;;;;;;;;;5066610;28;20538;-78
2022/12/15 09:59:20;;;;;;;96.63;53.50;;;;;;;;;;5056337;28;20673;-78
2022/12/15 10:01:52;;;;;;;93.77;51.23;;;;;;;;;;5062300;28;20194;-79
2022/12/15 10:04:18;;;;;;;99.53;53.23;;;;;;;;;;5056006;28;20182;-79
2022/12/15 10:06:44;;;;;;;93.77;53.37;;;;;;;;;;5054133;28;20197;-78
2022/12/15 10:09:17;;;;;;;100.33;55.87;;;;;;;;;;5065727;28;20189;-77
2022/12/15 10:11:43;;;;;;;94.77;52.73;;;;;;;;;;5067249;28;20173;-78
2022/12/15 10:14:22;;;;;;;91.80;53.97;;;;;;;;;;5060623;28;20235;-77
2022/12/15 10:16:54;;;;;;;95.20;53.70;;;;;;;;;;5061127;28;20189;-77
2022/12/15 10:19:20;;;;;;;99.27;55.13;;;;;;;;;;5062046;28;20208;-78
2022/12/15 10:21:47;;;;;;;86.13;48.40;;;;;;;;;;5069192;28;20181;-79
2022/12/15 10:24:18;;;;;;;88.07;48.57;;;;;;;;;;5050816;28;20182;-77
2022/12/15 10:26:48;;;;;;;91.97;50.83;;;;;;;;;;5077713;28;20540;-78
2022/12/15 10:29:24;;;;;;;96.27;53.77;;;;;;;;;;5058117;28;20186;-78
2022/12/15 10:31:50;;;;;;;93.00;49.90;;;;;;;;;;5062382;28;20197;-78
2022/12/15 10:34:23;;;;;;;96.73;53.27;;;;;;;;;;5062336;28;20252;-78
2022/12/15 10:36:50;;;;;;;109.33;59.50;;;;;;;;;;5055774;28;20275;-77
2022/12/15 10:39:16;;;;;;;109.27;58.87;;;;;;;;;;5054918;28;20217;-78
2022/12/15 10:41:43;;;;;;;104.73;57.17;;;;;;;;;;5050116;28;20175;-78
2022/12/15 10:44:24;;;;;;;104.30;57.20;;;;;;;;;;5056096;28;20713;-77
2022/12/15 10:46:56;;;;;;;106.47;57.87;;;;;;;;;;5067883;28;20185;-77
2022/12/15 10:49:24;;;;;;;111.93;60.03;;;;;;;;;;5068973;28;20727;-78
2022/12/15 10:51:59;;;;;;;99.03;55.30;;;;;;;;;;5068580;28;20225;-78
2022/12/15 10:54:36;;;;;;;93.50;51.57;;;;;;;;;;5059012;28;20713;-78
2022/12/15 10:57:20;;;;;;;88.47;50.67;;;;;;;;;;5053732;28;20187;-78
2022/12/15 10:59:46;;;;;;;96.27;53.27;;;;;;;;;;5070829;28;20223;-77
2022/12/15 11:02:40;;;;;;;96.90;53.87;;;;;;;;;;5069220;28;20177;-78
2022/12/15 11:05:14;;;;;;;94.63;51.40;;;;;;;;;;5052356;28;20194;-78
2022/12/15 11:07:46;;;;;;;89.50;52.63;;;;;;;;;;5060384;28;20209;-78
2022/12/15 11:10:15;;;;;;;100.70;54.53;;;;;;;;;;5059283;28;20198;-78
2022/12/15 11:12:51;;;;;;;109.10;57.80;;;;;;;;;;5066220;28;20186;-78
2022/12/15 11:15:23;;;;;;;110.37;58.63;;;;;;;;;;5062199;28;20260;-79
2022/12/15 11:18:05;;;;;;;109.47;59.30;;;;;;;;;;5069266;28;20182;-77
2022/12/15 11:20:34;;;;;;;110.63;56.23;;;;;;;;;;5073155;28;20226;-78
2022/12/15 11:23:14;;;;;;;109.10;56.47;;;;;;;;;;5058490;28;20182;-78
2022/12/15 11:25:51;;;;;;;101.97;54.73;;;;;;;;;;5067052;28;20189;-77
2022/12/15 11:28:26;;;;;;;102.63;54.33;;;;;;;;;;5069420;28;20940;-78
2022/12/15 11:31:19;;;;;;;104.73;54.87;;;;;;;;;;5057164;28;20185;-78
2022/12/15 11:33:45;;;;;;;98.03;52.80;;;;;;;;;;5066876;28;20204;-79
2022/12/15 11:36:25;;;;;;;113.97;57.53;;;;;;;;;;5072686;28;20227;-78
2022/12/15 11:38:58;;;;;;;109.60;55.97;;;;;;;;;;5065651;28;20761;-78
2022/12/15 11:41:43;;;;;;;113.57;56.80;;;;;;;;;;5076116;28;20173;-78
2022/12/15 11:44:18;;;;;;;115.53;58.20;;;;;;;;;;5070635;28;20676;-78
2022/12/15 11:46:52;;;;;;;117.60;57.40;;;;;;;;;;5061553;28;20256;-76
2022/12/15 11:49:30;;;;;;;109.57;56.53;;;;;;;;;;5059151;28;20173;-78
2022/12/15 11:52:07;;;;;;;118.97;59.73;;;;;;;;;;5071282;28;20264;-77
2022/12/15 11:54:33;;;;;;;120.83;60.27;;;;;;;;;;5058074;28;20230;-78
2022/12/15 11:57:02;;;;;;;114.83;61.83;;;;;;;;;;5053745;28;20268;-78
2022/12/15 11:59:37;;;;;;;112.03;59.73;;;;;;;;;;5054953;28;20208;-77
2022/12/15 12:02:03;;;;;;;129.37;67.37;;;;;;;;;;5068773;28;20184;-78
2022/12/15 12:04:33;;;;;;;125.73;66.93;;;;;;;;;;5071804;28;20181;-79
2022/12/15 12:07:08;;;;;;;122.63;67.57;;;;;;;;;;5068478;28;20208;-78
2022/12/15 12:09:35;;;;;;;113.63;59.23;;;;;;;;;;5066853;28;20194;-77
2022/12/15 12:12:07;;;;;;;114.90;58.20;;;;;;;;;;5056263;28;20183;-77
2022/12/15 12:14:38;;;;;;;106.43;56.37;;;;;;;;;;5079098;28;20176;-77
2022/12/15 12:17:43;;;;;;;97.17;52.53;;;;;;;;;;5065059;28;20543;-78
2022/12/15 12:20:14;;;;;;;96.23;51.87;;;;;;;;;;5009917;28;20310;-77
2022/12/15 12:22:42;;;;;;;98.33;50.43;;;;;;;;;;4988486;28;20196;-76
2022/12/15 12:25:12;;;;;;;102.70;52.80;;;;;;;;;;5000944;28;20203;-76
2022/12/15 12:27:44;;;;;;;105.70;55.40;;;;;;;;;;5008330;28;20270;-77
2022/12/15 12:30:13;;;;;;;101.50;53.03;;;;;;;;;;5009186;28;20195;-76
2022/12/15 12:32:50;;;;;;;97.70;54.70;;;;;;;;;;5009514;28;20661;-76
2022/12/15 12:35:30;;;;;;;105.20;56.27;;;;;;;;;;5009313;28;20313;-78
2022/12/15 12:37:59;;;;;;;100.40;54.70;;;;;;;;;;5002703;28;20736;-78
2022/12/15 12:40:25;;;;;;;104.87;53.70;;;;;;;;;;4998014;28;20264;-79
2022/12/15 12:42:53;;;;;;;95.73;51.43;;;;;;;;;;5007675;28;20208;-77
2022/12/15 12:45:20;;;;;;;97.07;48.80;;;;;;;;;;5008733;28;20242;-78
2022/12/15 12:47:49;;;;;;;91.93;49.03;;;;;;;;;;5011284;28;20575;-77
2022/12/15 12:50:23;;;;;;;88.00;47.63;;;;;;;;;;5019943;28;20296;-78
2022/12/15 12:52:54;;;;;;;91.00;49.63;;;;;;;;;;5067161;28;20203;-77
2022/12/15 12:55:28;;;;;;;87.17;47.53;;;;;;;;;;5058191;28;20240;-78
2022/12/15 12:57:54;;;;;;;92.63;48.47;;;;;;;;;;5058324;28;20306;-78
2022/12/15 13:00:22;;;;;;;91.30;48.90;;;;;;;;;;5068871;28;20221;-77
2022/12/15 13:03:08;;;;;;;79.53;44.33;;;;;;;;;;5057699;28;20180;-77
2022/12/15 13:05:36;;;;;;;85.63;45.03;;;;;;;;;;5067099;28;20224;-78
2022/12/15 13:08:05;;;;;;;79.43;40.60;;;;;;;;;;5070179;28;20275;-78
2022/12/15 13:10:41;;;;;;;83.37;42.73;;;;;;;;;;5063383;28;20221;-76
2022/12/15 13:13:26;;;;;;;80.93;40.67;;;;;;;;;;5055515;28;20834;-78
2022/12/15 13:15:58;;;;;;;77.53;41.07;;;;;;;;;;5076283;28;20175;-77
2022/12/15 13:18:24;;;;;;;71.60;37.87;;;;;;;;;;5070123;28;20193;-77
2022/12/15 13:20:55;;;;;;;72.13;38.30;;;;;;;;;;5057981;28;20232;-77
2022/12/15 13:23:21;;;;;;;76.77;39.10;;;;;;;;;;5058137;28;20247;-76
2022/12/15 13:25:53;;;;;;;73.90;38.80;;;;;;;;;;5062308;28;20178;-77
2022/12/15 13:28:24;;;;;;;70.63;36.50;;;;;;;;;;5059176;28;20181;-76
2022/12/15 13:31:08;;;;;;;74.53;38.60;;;;;;;;;;5068554;28;20192;-77
2022/12/15 13:33:43;;;;;;;71.23;36.20;;;;;;;;;;5068454;28;20178;-77
2022/12/15 13:36:09;;;;;;;72.53;37.37;;;;;;;;;;5064528;28;20709;-77
2022/12/15 13:39:01;;;;;;;72.90;36.10;;;;;;;;;;5057641;28;20185;-76
2022/12/15 13:41:27;;;;;;;85.67;39.90;;;;;;;;;;5054877;28;20216;-77
2022/12/15 13:43:53;;;;;;;93.97;42.57;;;;;;;;;;5054814;28;20186;-77
2022/12/15 13:46:22;;;;;;;100.10;50.27;;;;;;;;;;5056924;28;20268;-78
2022/12/15 13:49:09;;;;;;;98.77;48.77;;;;;;;;;;5061223;28;20216;-76
2022/12/15 13:51:37;;;;;;;95.73;46.17;;;;;;;;;;5052780;28;20214;-76
2022/12/15 13:54:24;;;;;;;93.13;44.30;;;;;;;;;;5056152;28;20181;-77
2022/12/15 13:57:04;;;;;;;100.80;45.37;;;;;;;;;;5055706;28;20174;-77
2022/12/15 13:59:33;;;;;;;104.37;46.53;;;;;;;;;;5068508;28;20240;-78
2022/12/15 14:01:59;;;;;;;97.27;43.83;;;;;;;;;;5069292;28;20189;-78
2022/12/15 14:04:25;;;;;;;96.53;44.33;;;;;;;;;;5065409;28;20177;-78
2022/12/15 14:06:56;;;;;;;99.90;44.93;;;;;;;;;;5056028;28;20173;-78
2022/12/15 14:09:27;;;;;;;102.40;42.53;;;;;;;;;;5065898;28;20201;-78
2022/12/15 14:11:53;;;;;;;99.90;44.63;;;;;;;;;;5056299;28;20571;-78
2022/12/15 14:14:21;;;;;;;104.43;43.40;;;;;;;;;;5072515;28;20187;-78
2022/12/15 14:16:51;;;;;;;106.37;43.83;;;;;;;;;;5069056;28;20184;-78
2022/12/15 14:19:18;;;;;;;118.83;50.40;;;;;;;;;;5058179;28;20890;-77
2022/12/15 14:21:50;;;;;;;106.33;47.40;;;;;;;;;;5067149;28;20247;-78
2022/12/15 14:24:27;;;;;;;104.23;43.60;;;;;;;;;;5066917;28;20178;-78
2022/12/15 14:26:53;;;;;;;99.67;43.40;;;;;;;;;;5068168;28;20177;-79
2022/12/15 14:29:19;;;;;;;101.03;45.93;;;;;;;;;;5060144;28;20221;-77
2022/12/15 14:31:47;;;;;;;94.30;44.57;;;;;;;;;;5060033;28;20189;-78
2022/12/15 14:34:22;;;;;;;99.00;43.80;;;;;;;;;;5054287;28;20204;-78
2022/12/15 14:36:49;;;;;;;105.60;46.97;;;;;;;;;;5058160;28;20192;-78
2022/12/15 14:39:21;;;;;;;95.97;45.37;;;;;;;;;;5068168;28;20303;-78
2022/12/15 14:41:47;;;;;;;111.43;46.30;;;;;;;;;;5051173;28;20228;-78
2022/12/15 14:44:13;;;;;;;101.90;44.83;;;;;;;;;;5063721;28;20213;-77
2022/12/15 14:46:40;;;;;;;112.00;48.53;;;;;;;;;;5057633;28;20213;-78
2022/12/15 14:49:08;;;;;;;110.07;47.83;;;;;;;;;;5067251;28;20572;-79
2022/12/15 14:51:42;;;;;;;107.10;46.77;;;;;;;;;;5071034;28;20185;-77
2022/12/15 14:54:26;;;;;;;116.17;49.30;;;;;;;;;;5064746;28;20204;-79
2022/12/15 14:57:00;;;;;;;111.77;49.50;;;;;;;;;;5072985;28;20182;-79
2022/12/15 14:59:30;;;;;;;110.70;49.43;;;;;;;;;;5069720;28;20577;-79
2022/12/15 15:02:22;;;;;;;110.83;48.10;;;;;;;;;;5059369;28;20177;-79
2022/12/15 15:04:55;;;;;;;101.70;45.53;;;;;;;;;;5060858;28;20189;-79
2022/12/15 15:07:22;;;;;;;116.53;48.90;;;;;;;;;;5069986;28;20195;-78
2022/12/15 15:09:48;;;;;;;114.67;47.90;;;;;;;;;;5070485;28;20186;-79
2022/12/15 15:12:18;;;;;;;113.43;47.67;;;;;;;;;;5069641;28;20174;-78
2022/12/15 15:14:46;;;;;;;108.00;48.03;;;;;;;;;;5066382;28;20185;-79
2022/12/15 15:17:13;;;;;;;101.97;46.07;;;;;;;;;;5072774;28;20209;-78
2022/12/15 15:19:45;;;;;;;89.23;44.63;;;;;;;;;;5073217;28;20205;-78
2022/12/15 15:22:29;;;;;;;103.60;45.30;;;;;;;;;;5067182;28;20190;-79
2022/12/15 15:24:55;;;;;;;100.40;46.20;;;;;;;;;;5063944;28;20181;-79
2022/12/15 15:27:40;;;;;;;103.47;46.37;;;;;;;;;;5070691;28;20238;-78
2022/12/15 15:30:12;;;;;;;106.10;47.53;;;;;;;;;;5080341;28;20242;-78
2022/12/15 15:32:49;;;;;;;93.43;43.27;;;;;;;;;;5067878;28;20299;-78
2022/12/15 15:35:15;;;;;;;96.77;46.90;;;;;;;;;;5061429;28;20584;-78
2022/12/15 15:37:41;;;;;;;99.53;46.77;;;;;;;;;;5057367;28;20182;-79
2022/12/15 15:40:09;;;;;;;86.80;43.10;;;;;;;;;;5058966;28;20221;-79
2022/12/15 15:42:35;;;;;;;93.77;45.70;;;;;;;;;;5070259;28;20174;-79
2022/12/15 15:45:01;;;;;;;98.77;47.63;;;;;;;;;;5066802;28;20192;-79
2022/12/15 15:47:27;;;;;;;98.07;48.87;;;;;;;;;;5065750;28;20584;-79
2022/12/15 15:49:55;;;;;;;92.73;46.87;;;;;;;;;;5061306;28;20650;-79
2022/12/15 15:52:21;;;;;;;94.03;48.30;;;;;;;;;;5057333;28;20182;-78
2022/12/15 15:54:47;;;;;;;86.07;45.27;;;;;;;;;;5071961;28;20196;-78
2022/12/15 15:57:17;;;;;;;99.33;47.73;;;;;;;;;;5061510;28;20223;-80
2022/12/15 15:59:45;;;;;;;94.77;45.37;;;;;;;;;;5058191;28;20267;-79
2022/12/15 16:02:12;;;;;;;95.30;47.90;;;;;;;;;;5065318;28;20268;-79
2022/12/15 16:04:41;;;;;;;90.90;43.80;;;;;;;;;;5071059;28;20185;-78
2022/12/15 16:07:07;;;;;;;90.33;45.37;;;;;;;;;;5056239;28;21137;-79
2022/12/15 16:09:34;;;;;;;89.20;45.70;;;;;;;;;;5066586;28;20220;-79
2022/12/15 16:12:00;;;;;;;86.77;47.97;;;;;;;;;;5054610;28;20253;-79
2022/12/15 16:14:26;;;;;;;113.83;53.53;;;;;;;;;;5066025;28;20581;-79
2022/12/15 16:16:53;;;;;;;129.73;63.33;;;;;;;;;;5066253;28;20189;-79
2022/12/15 16:19:19;;;;;;;107.73;56.43;;;;;;;;;;5053914;28;20308;-79
2022/12/15 16:21:49;;;;;;;97.37;50.70;;;;;;;;;;5069411;28;20547;-77
2022/12/15 16:24:17;;;;;;;99.33;51.57;;;;;;;;;;5058297;28;20174;-77
2022/12/15 16:26:46;;;;;;;104.30;50.87;;;;;;;;;;5066772;28;20189;-79
2022/12/15 16:29:15;;;;;;;102.97;53.60;;;;;;;;;;5060426;28;20194;-80
2022/12/15 16:31:45;;;;;;;122.63;59.03;;;;;;;;;;5063699;28;20196;-80
2022/12/15 16:34:12;;;;;;;149.33;72.77;;;;;;;;;;5068804;28;20184;-78
2022/12/15 16:36:38;;;;;;;100.63;52.10;;;;;;;;;;5053699;28;20659;-80
2022/12/15 16:39:07;;;;;;;95.10;49.10;;;;;;;;;;5057718;28;20201;-78
2022/12/15 16:41:33;;;;;;;89.67;46.63;;;;;;;;;;5063815;28;20188;-78
2022/12/15 16:43:59;;;;;;;86.03;45.53;;;;;;;;;;5063054;28;20281;-78